Time;durP1;ratioP1;P1;durP2;ratioP2;P2;SDS_P1;SDS_P2;PMS_P1;PMS_P2;Temp;Humidity;BMP_temperature;BMP_pressure;BME280_temperature;BME280_humidity;BME280_pressure;Samples;Min_cycle;Max_cycle;Signal;HPM_P1;HPM_P2
2023/08/03 00:01:35;;;;;;;2.97;1.27;;;16.30;99.90;;;;;;5057592;28;20489;-83
2023/08/03 00:04:02;;;;;;;3.85;1.40;;;16.30;99.90;;;;;;5057347;28;20044;-83
2023/08/03 00:09:00;;;;;;;3.00;1.20;;;16.20;99.90;;;;;;5074984;28;20467;-83
2023/08/03 00:11:26;;;;;;;6.90;1.30;;;16.20;99.90;;;;;;5074711;28;20040;-82
2023/08/03 00:13:53;;;;;;;3.53;1.10;;;16.20;99.90;;;;;;5059844;28;20048;-83
2023/08/03 00:18:51;;;;;;;2.97;1.10;;;16.20;99.90;;;;;;5056584;28;20434;-83
2023/08/03 00:21:17;;;;;;;2.60;1.10;;;16.20;99.90;;;;;;5057583;28;20040;-83
2023/08/03 00:23:44;;;;;;;2.92;1.10;;;16.20;99.90;;;;;;5057266;28;20105;-83
2023/08/03 00:26:12;;;;;;;3.28;1.10;;;16.20;99.90;;;;;;5056277;28;20052;-83
2023/08/03 00:28:39;;;;;;;2.97;1.00;;;16.20;99.90;;;;;;5040902;28;20044;-83
2023/08/03 00:31:06;;;;;;;1.95;1.02;;;16.20;99.90;;;;;;5056844;28;20421;-83
2023/08/03 00:33:33;;;;;;;2.45;1.02;;;16.20;99.90;;;;;;5039699;28;20049;-83
2023/08/03 00:36:01;;;;;;;2.10;0.90;;;16.10;99.90;;;;;;5040096;28;20082;-83
2023/08/03 00:38:27;;;;;;;2.25;1.08;;;16.10;99.90;;;;;;5074486;28;20036;-83
2023/08/03 00:40:54;;;;;;;2.92;1.05;;;16.10;99.90;;;;;;5056049;28;20592;-83
2023/08/03 00:43:22;;;;;;;2.75;1.00;;;16.10;99.90;;;;;;5040496;28;20055;-82
2023/08/03 00:45:49;;;;;;;1.88;0.82;;;16.00;99.90;;;;;;5073266;28;20049;-83
2023/08/03 00:48:19;;;;;;;4.30;0.98;;;15.90;99.90;;;;;;5040452;28;20060;-83
2023/08/03 00:50:45;;;;;;;3.25;0.95;;;15.90;99.90;;;;;;5056682;28;20467;-83
2023/08/03 00:53:12;;;;;;;2.30;1.00;;;15.80;99.90;;;;;;5042004;28;20060;-83
2023/08/03 00:55:42;;;;;;;2.28;0.90;;;15.80;99.90;;;;;;5040074;28;20139;-84
2023/08/03 00:58:09;;;;;;;2.88;1.05;;;15.80;99.90;;;;;;5057010;28;20033;-84
2023/08/03 01:00:36;;;;;;;1.63;0.80;;;15.80;99.90;;;;;;5055935;28;20110;-84
2023/08/03 01:03:03;;;;;;;2.72;1.05;;;15.80;99.90;;;;;;5056864;28;20143;-83
2023/08/03 01:05:31;;;;;;;5.03;1.10;;;15.70;99.90;;;;;;5073217;28;20036;-84
2023/08/03 01:07:59;;;;;;;4.43;1.40;;;15.70;99.90;;;;;;5056577;28;20457;-84
2023/08/03 01:10:26;;;;;;;2.03;1.08;;;15.70;99.90;;;;;;5056776;28;20045;-84
2023/08/03 01:12:53;;;;;;;3.05;1.20;;;15.70;99.90;;;;;;5045717;28;20055;-83
2023/08/03 01:15:20;;;;;;;3.95;1.20;;;15.70;99.90;;;;;;5070299;28;20105;-84
2023/08/03 01:20:17;;;;;;;7.97;1.35;;;15.80;99.90;;;;;;5055901;28;20136;-85
2023/08/03 01:22:44;;;;;;;5.25;1.20;;;15.80;99.90;;;;;;5074115;28;20087;-83
2023/08/03 01:25:11;;;;;;;3.35;1.38;;;15.80;99.90;;;;;;5056155;28;20049;-83
2023/08/03 01:27:40;;;;;;;2.95;1.35;;;15.80;99.90;;;;;;5056672;28;20044;-84
2023/08/03 01:30:07;;;;;;;4.75;1.40;;;15.80;99.90;;;;;;5060148;28;20045;-84
2023/08/03 01:32:34;;;;;;;5.13;1.20;;;15.80;99.90;;;;;;5059072;28;20482;-83
2023/08/03 01:35:01;;;;;;;2.90;1.27;;;15.80;99.90;;;;;;5077476;28;20058;-83
2023/08/03 01:37:28;;;;;;;3.50;1.35;;;15.80;99.90;;;;;;5060215;28;20434;-84
2023/08/03 01:39:55;;;;;;;3.53;1.20;;;15.70;99.90;;;;;;5063009;28;20044;-84
2023/08/03 01:42:22;;;;;;;5.15;1.67;;;15.80;99.90;;;;;;5065163;28;20051;-84
2023/08/03 01:44:48;;;;;;;4.03;1.65;;;15.70;99.90;;;;;;5077224;28;20044;-83
2023/08/03 01:47:17;;;;;;;4.72;1.50;;;15.80;99.90;;;;;;5042498;28;20068;-85
2023/08/03 01:49:43;;;;;;;3.92;1.30;;;15.80;99.90;;;;;;5060110;28;20386;-85
2023/08/03 01:52:10;;;;;;;4.50;1.60;;;15.70;99.90;;;;;;5059031;28;20044;-83
2023/08/03 01:54:37;;;;;;;5.70;1.60;;;15.80;99.90;;;;;;5076980;28;20036;-84
2023/08/03 01:57:05;;;;;;;4.30;1.75;;;15.80;99.90;;;;;;5059967;28;20044;-83
2023/08/03 01:59:32;;;;;;;4.35;1.75;;;15.80;99.90;;;;;;5042208;28;20059;-85
2023/08/03 02:01:58;;;;;;;6.53;1.80;;;15.80;99.90;;;;;;5059517;28;20051;-82
2023/08/03 02:04:25;;;;;;;11.00;1.67;;;15.80;99.90;;;;;;5076866;28;20540;-83
2023/08/03 02:06:52;;;;;;;6.43;1.83;;;15.80;99.90;;;;;;5058618;28;20053;-85
2023/08/03 02:09:20;;;;;;;5.50;2.00;;;15.80;99.90;;;;;;5059414;28;20040;-85
2023/08/03 02:11:46;;;;;;;4.20;1.70;;;15.80;99.90;;;;;;5058326;28;20364;-84
2023/08/03 02:14:13;;;;;;;5.15;1.65;;;15.80;99.90;;;;;;5045828;28;20139;-85
2023/08/03 02:16:41;;;;;;;5.20;1.65;;;15.80;99.90;;;;;;5059804;28;20467;-84
2023/08/03 02:19:08;;;;;;;6.05;1.70;;;15.90;99.90;;;;;;5040441;28;20345;-85
2023/08/03 02:21:35;;;;;;;5.38;1.70;;;15.90;99.90;;;;;;5051611;28;20135;-85
2023/08/03 02:24:01;;;;;;;5.95;1.85;;;15.90;99.90;;;;;;5059096;28;20040;-85
2023/08/03 02:29:16;;;;;;;7.25;1.90;;;15.80;99.90;;;;;;5059028;28;20037;-84
2023/08/03 02:31:43;;;;;;;5.68;1.85;;;15.90;99.90;;;;;;5046802;28;20052;-85
2023/08/03 02:34:10;;;;;;;7.20;1.63;;;15.80;99.90;;;;;;5055398;28;20110;-85
2023/08/03 02:36:41;;;;;;;8.25;1.92;;;15.80;99.90;;;;;;5059257;28;20487;-85
2023/08/03 02:39:09;;;;;;;6.22;2.20;;;15.80;99.90;;;;;;5058109;28;20529;-84
2023/08/03 02:41:39;;;;;;;4.63;1.95;;;15.80;99.90;;;;;;5058848;28;20037;-85
2023/08/03 02:44:12;;;;;;;4.50;1.83;;;15.80;99.90;;;;;;5059133;28;20422;-85
2023/08/03 02:46:44;;;;;;;5.97;2.00;;;15.80;99.90;;;;;;5033547;28;20045;-84
2023/08/03 02:49:11;;;;;;;6.25;1.90;;;15.80;99.90;;;;;;5067852;28;20056;-84
2023/08/03 02:51:38;;;;;;;6.05;1.92;;;15.80;99.90;;;;;;5058813;28;20052;-85
2023/08/03 02:54:05;;;;;;;10.48;2.15;;;15.80;99.90;;;;;;5057434;28;20056;-85
2023/08/03 02:59:23;;;;;;;6.30;2.22;;;15.80;99.90;;;;;;5057641;28;20045;-85
2023/08/03 03:01:49;;;;;;;9.57;2.40;;;15.80;99.90;;;;;;5058437;28;20041;-85
2023/08/03 03:04:19;;;;;;;5.72;2.00;;;15.80;99.90;;;;;;5058156;28;20066;-85
2023/08/03 03:09:55;;;;;;;7.50;1.90;;;15.70;99.90;;;;;;5013923;28;20044;-85
2023/08/03 03:12:22;;;;;;;5.85;2.30;;;15.70;99.90;;;;;;5040946;28;20051;-85
2023/08/03 03:14:49;;;;;;;15.20;2.33;;;15.60;99.90;;;;;;5045775;28;20045;-85
2023/08/03 03:20:03;;;;;;;5.45;2.15;;;15.70;99.90;;;;;;5075036;28;20047;-85
2023/08/03 03:22:30;;;;;;;11.38;2.55;;;15.70;99.90;;;;;;5058233;28;20063;-85
2023/08/03 03:24:57;;;;;;;11.23;2.00;;;15.70;99.90;;;;;;5038114;28;20037;-85
2023/08/03 03:27:24;;;;;;;11.27;2.25;;;15.70;99.90;;;;;;5053883;28;20041;-85
2023/08/03 03:29:54;;;;;;;5.28;2.08;;;15.70;99.90;;;;;;5057913;28;20390;-85
2023/08/03 03:32:21;;;;;;;6.55;2.15;;;15.70;99.90;;;;;;5056932;28;20048;-85
2023/08/03 03:34:48;;;;;;;8.20;1.98;;;15.70;99.90;;;;;;5057516;28;20067;-85
2023/08/03 03:40:05;;;;;;;7.43;2.10;;;15.60;99.90;;;;;;5047527;28;20040;-85
2023/08/03 03:42:37;;;;;;;6.78;1.90;;;15.60;99.90;;;;;;5041790;28;20128;-85
2023/08/03 03:45:04;;;;;;;7.22;2.03;;;15.60;99.90;;;;;;5057357;28;20383;-84
2023/08/03 03:50:21;;;;;;;6.65;2.22;;;15.60;99.90;;;;;;5056926;28;20049;-85
2023/08/03 03:52:48;;;;;;;9.25;2.33;;;15.60;99.90;;;;;;5056499;28;20056;-84
2023/08/03 03:55:17;;;;;;;9.25;2.50;;;15.60;99.90;;;;;;5040864;28;20044;-84
2023/08/03 03:57:49;;;;;;;8.53;2.20;;;15.60;99.90;;;;;;5042077;28;20045;-84
2023/08/03 04:00:16;;;;;;;9.82;2.10;;;15.60;99.90;;;;;;5056791;28;20048;-84
2023/08/03 04:02:42;;;;;;;7.82;2.08;;;15.50;99.90;;;;;;5075097;28;20044;-84
2023/08/03 04:05:15;;;;;;;6.03;2.65;;;15.50;99.90;;;;;;5056887;28;20055;-84
2023/08/03 04:07:43;;;;;;;9.68;2.00;;;15.50;99.90;;;;;;5040761;28;20045;-84
2023/08/03 04:10:09;;;;;;;8.82;2.53;;;15.60;99.90;;;;;;5037651;28;20529;-85
2023/08/03 04:12:36;;;;;;;8.15;2.05;;;15.50;99.90;;;;;;5069997;28;20049;-85
2023/08/03 04:15:03;;;;;;;7.22;1.98;;;15.50;99.90;;;;;;5056927;28;20110;-85
2023/08/03 04:17:31;;;;;;;5.50;2.03;;;15.50;99.90;;;;;;5057211;28;20045;-85
2023/08/03 04:19:58;;;;;;;5.70;1.77;;;15.50;99.90;;;;;;5036259;28;20045;-84
2023/08/03 04:22:25;;;;;;;6.85;1.70;;;15.50;99.90;;;;;;5073291;28;20040;-84
2023/08/03 04:24:51;;;;;;;9.32;2.53;;;15.50;99.90;;;;;;5074526;28;20052;-84
2023/08/03 04:27:20;;;;;;;5.90;2.03;;;15.50;99.90;;;;;;5056372;28;20379;-84
2023/08/03 04:29:48;;;;;;;8.43;2.17;;;15.50;99.90;;;;;;5057729;28;20204;-84
2023/08/03 04:32:15;;;;;;;17.02;2.30;;;15.50;99.90;;;;;;5056268;28;20044;-85
2023/08/03 04:34:44;;;;;;;7.20;1.92;;;15.50;99.90;;;;;;5040632;28;20064;-85
2023/08/03 04:39:41;;;;;;;5.45;1.80;;;15.50;99.90;;;;;;5073937;28;20051;-84
2023/08/03 04:42:08;;;;;;;9.02;1.73;;;15.50;99.90;;;;;;5046912;28;20102;-84
2023/08/03 04:44:36;;;;;;;7.18;1.80;;;15.50;99.90;;;;;;5055981;28;20045;-85
2023/08/03 04:49:51;;;;;;;6.50;2.00;;;15.50;99.90;;;;;;5057146;28;20040;-85
2023/08/03 04:52:18;;;;;;;7.97;1.90;;;15.50;99.90;;;;;;5055907;28;20475;-85
2023/08/03 04:54:46;;;;;;;8.23;1.63;;;15.50;99.90;;;;;;5056762;28;20051;-85
2023/08/03 04:57:15;;;;;;;14.98;1.90;;;15.50;99.90;;;;;;5056695;28;20102;-85
2023/08/03 04:59:42;;;;;;;10.45;1.90;;;15.50;99.90;;;;;;5056229;28;20128;-85
2023/08/03 05:02:09;;;;;;;4.40;1.65;;;15.50;99.90;;;;;;5040538;28;20532;-85
2023/08/03 05:04:36;;;;;;;6.43;2.28;;;15.50;99.90;;;;;;5043863;28;20242;-85
2023/08/03 05:09:50;;;;;;;7.55;2.38;;;15.50;99.90;;;;;;5060563;28;20051;-86
2023/08/03 05:12:16;;;;;;;7.78;1.77;;;15.50;99.90;;;;;;5052358;28;20048;-85
2023/08/03 05:14:43;;;;;;;7.60;1.75;;;15.50;99.90;;;;;;5035249;28;20078;-85
2023/08/03 05:17:11;;;;;;;6.70;1.83;;;15.50;99.90;;;;;;5060443;28;20056;-85
2023/08/03 05:19:38;;;;;;;5.30;1.50;;;15.50;99.90;;;;;;5060031;28;20037;-85
2023/08/03 05:22:05;;;;;;;9.43;1.80;;;15.50;99.90;;;;;;5044197;28;20459;-85
2023/08/03 05:24:31;;;;;;;8.77;1.90;;;15.50;99.90;;;;;;5060664;28;20028;-82
2023/08/03 05:29:30;;;;;;;6.75;1.67;;;15.50;99.90;;;;;;5077962;28;20044;-85
2023/08/03 05:31:56;;;;;;;7.38;1.80;;;15.50;99.90;;;;;;5059538;28;20466;-84
2023/08/03 05:34:23;;;;;;;4.47;1.50;;;15.40;99.90;;;;;;5059867;28;20394;-85
2023/08/03 05:39:40;;;;;;;8.60;1.98;;;15.40;99.90;;;;;;5078396;28;20041;-84
2023/08/03 05:42:06;;;;;;;9.30;2.20;;;15.40;99.90;;;;;;5077595;28;20537;-84
2023/08/03 05:44:33;;;;;;;5.05;1.73;;;15.40;99.90;;;;;;5059937;28;20040;-85
2023/08/03 05:47:01;;;;;;;5.93;1.63;;;15.40;99.90;;;;;;5076856;28;20123;-84
2023/08/03 05:49:27;;;;;;;7.93;1.98;;;15.40;99.90;;;;;;5077677;28;20044;-85
2023/08/03 05:51:54;;;;;;;6.05;1.95;;;15.50;99.90;;;;;;5060479;28;20044;-85
2023/08/03 05:54:21;;;;;;;6.03;1.90;;;15.50;99.90;;;;;;5042951;28;20044;-85
2023/08/03 05:59:36;;;;;;;7.07;1.83;;;15.50;99.90;;;;;;5058915;28;20044;-85
2023/08/03 06:02:03;;;;;;;8.82;2.03;;;15.50;99.90;;;;;;5059645;28;20569;-85
2023/08/03 06:04:30;;;;;;;8.23;1.95;;;15.50;99.90;;;;;;5060053;28;20139;-84
2023/08/03 06:06:57;;;;;;;4.13;1.52;;;15.50;99.90;;;;;;5076232;28;20044;-85
2023/08/03 06:09:24;;;;;;;6.13;1.92;;;15.50;99.90;;;;;;5077365;28;20367;-84
2023/08/03 06:11:51;;;;;;;4.72;1.50;;;15.50;99.90;;;;;;5057835;28;20066;-85
2023/08/03 06:14:17;;;;;;;5.65;1.88;;;15.60;99.90;;;;;;5059120;28;20099;-84
2023/08/03 06:16:46;;;;;;;8.50;1.77;;;15.60;99.90;;;;;;5070949;28;20198;-85
2023/08/03 06:19:15;;;;;;;10.18;2.00;;;15.70;99.90;;;;;;5035769;28;20041;-85
2023/08/03 06:21:43;;;;;;;9.27;2.10;;;15.70;99.90;;;;;;5068792;28;20036;-85
2023/08/03 06:24:10;;;;;;;10.18;1.80;;;15.70;99.90;;;;;;5042701;28;20051;-84
2023/08/03 06:29:08;;;;;;;7.88;1.73;;;15.80;99.90;;;;;;5059127;28;20051;-82
2023/08/03 06:31:35;;;;;;;4.30;1.60;;;15.80;99.90;;;;;;5042730;28;20082;-85
2023/08/03 06:34:03;;;;;;;8.23;2.20;;;15.80;99.90;;;;;;5058492;28;20090;-84
2023/08/03 06:36:31;;;;;;;6.65;2.20;;;15.80;99.90;;;;;;5077025;28;20063;-85
2023/08/03 06:38:57;;;;;;;6.15;2.25;;;15.80;99.90;;;;;;5058110;28;20455;-84
2023/08/03 06:41:24;;;;;;;7.45;1.92;;;15.80;99.90;;;;;;5042286;28;20356;-85
2023/08/03 06:43:51;;;;;;;7.38;2.40;;;15.80;99.90;;;;;;5040593;28;20052;-89
2023/08/03 06:49:08;;;;;;;7.30;1.73;;;16.00;99.90;;;;;;5048405;28;20045;-88
2023/08/03 06:51:34;;;;;;;7.00;1.73;;;15.90;99.90;;;;;;5024797;28;20075;-86
2023/08/03 06:54:02;;;;;;;5.22;1.73;;;16.00;99.90;;;;;;5057965;28;20419;-84
2023/08/03 06:59:20;;;;;;;6.63;1.92;;;16.10;99.90;;;;;;5075077;28;20126;-83
2023/08/03 07:01:48;;;;;;;6.85;1.85;;;16.10;99.90;;;;;;5055180;28;20036;-83
2023/08/03 07:04:16;;;;;;;9.43;1.92;;;16.20;99.90;;;;;;5057420;28;20120;-83
2023/08/03 07:06:43;;;;;;;10.82;2.20;;;16.20;99.90;;;;;;5057256;28;20470;-84
2023/08/03 07:09:10;;;;;;;8.88;2.03;;;16.20;99.90;;;;;;5057871;28;20054;-83
2023/08/03 07:11:37;;;;;;;10.40;1.88;;;16.20;99.90;;;;;;5062291;28;20439;-84
2023/08/03 07:14:04;;;;;;;4.65;1.80;;;16.30;99.90;;;;;;5074493;28;20127;-84
2023/08/03 07:16:31;;;;;;;6.45;1.90;;;16.40;99.90;;;;;;5058001;28;20050;-84
2023/08/03 07:18:58;;;;;;;8.98;2.00;;;16.50;99.90;;;;;;5040753;28;20411;-84
2023/08/03 07:21:25;;;;;;;7.03;2.05;;;16.60;99.90;;;;;;5058130;28;20068;-83
2023/08/03 07:23:51;;;;;;;11.38;1.80;;;16.70;99.90;;;;;;5057755;28;20455;-83
2023/08/03 07:26:19;;;;;;;6.00;1.73;;;16.80;99.90;;;;;;5073780;28;20146;-83
2023/08/03 07:28:46;;;;;;;6.28;1.63;;;16.80;99.90;;;;;;5057855;28;20044;-85
2023/08/03 07:31:13;;;;;;;9.98;2.10;;;17.00;99.90;;;;;;5058006;28;20044;-83
2023/08/03 07:33:39;;;;;;;8.07;2.00;;;17.20;99.90;;;;;;5046658;28;20055;-81
2023/08/03 07:36:08;;;;;;;12.93;2.05;;;17.40;99.90;;;;;;5074549;28;20111;-83
2023/08/03 07:38:35;;;;;;;9.68;2.03;;;17.60;99.90;;;;;;5057562;28;20064;-85
2023/08/03 07:41:02;;;;;;;8.02;2.28;;;17.80;99.90;;;;;;5037143;28;20033;-83
2023/08/03 07:43:29;;;;;;;6.03;1.90;;;18.00;99.90;;;;;;5040960;28;20152;-86
2023/08/03 07:45:57;;;;;;;8.00;2.05;;;18.10;99.90;;;;;;5056556;28;20479;-83
2023/08/03 07:48:23;;;;;;;4.90;1.70;;;18.20;99.90;;;;;;5057475;28;20052;-86
2023/08/03 07:50:50;;;;;;;6.65;1.80;;;18.10;99.90;;;;;;5040999;28;20056;-83
2023/08/03 07:53:17;;;;;;;6.00;1.88;;;18.10;99.90;;;;;;5074612;28;20116;-84
2023/08/03 07:58:30;;;;;;;16.27;2.55;;;18.20;99.90;;;;;;5067537;28;20040;-87
2023/08/03 08:00:57;;;;;;;6.55;2.10;;;18.30;99.90;;;;;;5056592;28;20045;-88
2023/08/03 08:03:23;;;;;;;6.03;1.65;;;18.20;99.90;;;;;;5057143;28;20076;-88
2023/08/03 08:05:52;;;;;;;7.28;1.80;;;18.10;99.90;;;;;;5056912;28;20041;-87
2023/08/03 08:08:19;;;;;;;7.68;2.28;;;18.00;99.90;;;;;;5075069;28;20045;-86
2023/08/03 08:10:46;;;;;;;4.93;1.77;;;17.90;99.90;;;;;;5077152;28;20040;-85
2023/08/03 08:13:18;;;;;;;5.13;1.70;;;17.70;99.90;;;;;;5043817;28;20107;-84
2023/08/03 08:15:45;;;;;;;7.65;2.85;;;17.90;99.90;;;;;;5054816;28;20072;-89
2023/08/03 08:18:12;;;;;;;7.15;1.98;;;17.90;99.90;;;;;;5057797;28;20052;-87
2023/08/03 08:20:39;;;;;;;5.45;1.90;;;18.00;99.90;;;;;;5042687;28;20044;-88
2023/08/03 08:23:05;;;;;;;6.32;1.98;;;18.10;99.90;;;;;;5075720;28;20471;-87
2023/08/03 08:25:32;;;;;;;8.65;2.50;;;18.30;99.90;;;;;;5056816;28;20136;-87
2023/08/03 08:30:31;;;;;;;7.70;2.00;;;18.40;99.90;;;;;;5071265;28;20044;-86
2023/08/03 08:32:58;;;;;;;5.65;2.03;;;18.50;99.90;;;;;;5056558;28;20049;-88
2023/08/03 08:35:25;;;;;;;6.22;1.83;;;18.80;99.90;;;;;;5059608;28;20045;-89
2023/08/03 08:37:53;;;;;;;6.68;1.90;;;19.10;99.90;;;;;;5056680;28;20080;-84
2023/08/03 08:40:19;;;;;;;8.80;2.20;;;19.20;99.90;;;;;;5074370;28;20518;-83
2023/08/03 08:42:46;;;;;;;7.38;1.80;;;19.20;99.90;;;;;;5074661;28;20477;-85
2023/08/03 08:45:13;;;;;;;7.03;1.90;;;19.20;99.90;;;;;;5067163;28;20124;-85
2023/08/03 08:47:39;;;;;;;6.97;2.47;;;19.30;99.90;;;;;;5046960;28;20789;-87
2023/08/03 08:50:06;;;;;;;7.55;2.97;;;19.50;99.90;;;;;;5045364;28;20450;-82
2023/08/03 08:52:36;;;;;;;4.93;1.90;;;19.70;99.90;;;;;;5047176;28;20388;-83
2023/08/03 08:55:23;;;;;;;3.88;1.60;;;20.00;99.90;;;;;;5074189;28;20478;-80
2023/08/03 09:00:43;;;;;;;7.10;1.90;;;20.10;99.90;;;;;;5054080;28;20041;-82
2023/08/03 09:03:10;;;;;;;9.70;1.80;;;20.30;99.90;;;;;;5041028;28;20047;-81
2023/08/03 09:05:39;;;;;;;7.03;2.80;;;20.50;99.90;;;;;;5074280;28;20102;-81
2023/08/03 09:08:08;;;;;;;10.40;2.75;;;20.90;99.90;;;;;;5074076;28;20046;-82
2023/08/03 09:10:35;;;;;;;6.63;1.80;;;20.70;99.90;;;;;;5074227;28;20051;-83
2023/08/03 09:13:02;;;;;;;5.72;2.05;;;20.60;99.90;;;;;;5044693;28;20095;-82
2023/08/03 09:15:28;;;;;;;9.15;1.98;;;20.50;99.90;;;;;;5071324;28;20041;-84
2023/08/03 09:17:57;;;;;;;6.78;1.77;;;20.40;99.90;;;;;;5056558;28;20154;-82
2023/08/03 09:20:27;;;;;;;7.82;1.92;;;20.20;99.90;;;;;;5055584;28;20040;-81
2023/08/03 09:22:56;;;;;;;8.68;1.70;;;20.10;99.90;;;;;;5073773;28;20473;-81
2023/08/03 09:25:26;;;;;;;7.53;1.73;;;20.00;99.90;;;;;;5046810;28;20051;-82
2023/08/03 09:28:07;;;;;;;8.88;1.98;;;19.80;99.90;;;;;;5078984;28;20379;-84
2023/08/03 09:30:36;;;;;;;8.15;1.90;;;19.60;99.90;;;;;;5073988;28;20124;-84
2023/08/03 09:33:03;;;;;;;5.97;1.83;;;19.70;99.90;;;;;;5056092;28;20400;-84
2023/08/03 09:35:30;;;;;;;13.77;4.13;;;19.60;99.90;;;;;;5073672;28;20054;-81
2023/08/03 09:38:16;;;;;;;5.30;1.88;;;19.40;99.90;;;;;;5056402;28;20041;-81
2023/08/03 09:40:44;;;;;;;6.65;1.80;;;19.10;99.90;;;;;;5055514;28;20041;-82
2023/08/03 09:43:10;;;;;;;6.60;1.65;;;19.50;99.90;;;;;;5073332;28;20039;-83
2023/08/03 09:45:59;;;;;;;5.07;1.60;;;20.00;99.90;;;;;;5055484;28;20049;-81
2023/08/03 09:48:26;;;;;;;6.57;2.10;;;20.50;99.90;;;;;;5077021;28;20568;-85
2023/08/03 09:50:53;;;;;;;6.32;2.03;;;21.00;99.90;;;;;;5059849;28;20040;-83
2023/08/03 09:53:20;;;;;;;5.47;1.63;;;21.20;99.90;;;;;;5076419;28;20183;-82
2023/08/03 09:55:53;;;;;;;6.65;1.67;;;21.30;99.90;;;;;;5077346;28;20135;-82
2023/08/03 09:58:20;;;;;;;7.57;1.95;;;21.30;99.90;;;;;;5075504;28;20127;-84
2023/08/03 10:00:46;;;;;;;5.55;1.70;;;20.90;99.90;;;;;;5058935;28;20135;-81
2023/08/03 10:03:13;;;;;;;7.07;2.00;;;20.70;99.90;;;;;;5077246;28;20102;-82
2023/08/03 10:05:40;;;;;;;6.95;1.95;;;20.40;99.90;;;;;;5053023;28;20091;-81
2023/08/03 10:08:07;;;;;;;7.45;2.13;;;20.10;99.90;;;;;;5074017;28;20127;-81
2023/08/03 10:10:34;;;;;;;7.60;2.05;;;20.00;99.90;;;;;;5077752;28;20127;-84
2023/08/03 10:13:01;;;;;;;5.72;2.00;;;20.10;99.90;;;;;;5075949;28;20044;-84
2023/08/03 10:15:27;;;;;;;5.93;1.60;;;20.10;99.90;;;;;;5076953;28;20123;-84
2023/08/03 10:17:55;;;;;;;10.20;1.90;;;20.20;99.90;;;;;;5059524;28;20052;-83
2023/08/03 10:20:23;;;;;;;5.32;1.63;;;20.50;99.90;;;;;;5058194;28;20044;-80
2023/08/03 10:22:49;;;;;;;5.75;1.80;;;20.70;99.90;;;;;;5059476;28;20123;-84
2023/08/03 10:25:17;;;;;;;5.90;1.80;;;20.90;99.90;;;;;;5058732;28;20127;-83
2023/08/03 10:27:45;;;;;;;4.78;1.75;;;20.80;99.90;;;;;;5059036;28;20047;-85
2023/08/03 10:30:12;;;;;;;4.90;1.50;;;20.90;99.90;;;;;;5076869;28;20117;-80
2023/08/03 10:32:39;;;;;;;11.15;1.88;;;20.70;99.90;;;;;;5044498;28;20049;-84
2023/08/03 10:35:05;;;;;;;8.63;2.33;;;20.60;99.90;;;;;;5076038;28;20055;-82
2023/08/03 10:37:34;;;;;;;4.97;1.50;;;20.60;99.90;;;;;;5041945;28;20083;-80
2023/08/03 10:40:03;;;;;;;10.32;1.63;;;20.60;99.90;;;;;;5058277;28;20463;-82
2023/08/03 10:42:29;;;;;;;6.50;1.60;;;20.30;99.90;;;;;;5076237;28;20083;-83
2023/08/03 10:44:56;;;;;;;5.20;1.80;;;20.40;99.90;;;;;;5076134;28;20059;-82
2023/08/03 10:47:25;;;;;;;7.63;1.60;;;21.20;99.90;;;;;;5058331;28;20045;-85
2023/08/03 10:49:52;;;;;;;5.43;1.63;;;21.50;99.90;;;;;;5076193;28;20045;-81
2023/08/03 10:52:19;;;;;;;5.85;1.50;;;21.80;99.90;;;;;;5058031;28;20391;-80
2023/08/03 10:54:46;;;;;;;6.60;1.80;;;22.30;99.90;;;;;;5058264;28;20040;-83
2023/08/03 10:59:45;;;;;;;5.28;1.50;;;22.50;99.90;;;;;;5075225;28;20067;-85
2023/08/03 11:02:13;;;;;;;3.67;1.50;;;22.60;99.90;;;;;;5076214;28;20044;-86
2023/08/03 11:04:40;;;;;;;4.88;1.50;;;22.70;99.90;;;;;;5058214;28;20045;-82
2023/08/03 11:09:53;;;;;;;4.03;1.45;;;22.50;99.90;;;;;;5058894;28;20049;-82
2023/08/03 11:12:20;;;;;;;4.65;1.40;;;22.40;99.90;;;;;;5075447;28;20041;-85
2023/08/03 11:14:46;;;;;;;4.68;1.50;;;22.00;99.90;;;;;;5046698;28;20107;-86
2023/08/03 11:17:15;;;;;;;6.45;1.50;;;21.90;99.90;;;;;;5073831;28;20077;-81
2023/08/03 11:19:42;;;;;;;6.38;1.65;;;21.60;99.90;;;;;;5075377;28;20555;-81
2023/08/03 11:22:09;;;;;;;5.05;1.63;;;21.50;99.90;;;;;;5076150;28;20474;-85
2023/08/03 11:24:36;;;;;;;5.40;1.60;;;21.50;99.90;;;;;;5075943;28;20092;-85
2023/08/03 11:27:05;;;;;;;4.95;1.77;;;21.70;99.90;;;;;;5057546;28;20143;-87
2023/08/03 11:29:31;;;;;;;4.85;1.70;;;21.70;99.90;;;;;;5076028;28;20094;-86
2023/08/03 11:31:58;;;;;;;3.70;1.45;;;21.70;99.90;;;;;;5037443;28;20045;-84
2023/08/03 11:34:25;;;;;;;5.40;1.73;;;21.70;99.90;;;;;;5057123;28;20057;-85
2023/08/03 11:36:53;;;;;;;6.60;1.60;;;21.70;99.90;;;;;;5078173;28;20068;-82
2023/08/03 11:39:20;;;;;;;4.30;1.50;;;21.90;99.90;;;;;;5075013;28;20041;-86
2023/08/03 11:41:46;;;;;;;4.43;1.60;;;22.20;99.90;;;;;;5057643;28;20055;-83
2023/08/03 11:44:15;;;;;;;3.47;1.40;;;22.40;99.90;;;;;;5042031;28;20110;-85
2023/08/03 11:46:43;;;;;;;6.38;1.80;;;22.60;99.90;;;;;;5074826;28;20041;-83
2023/08/03 11:49:12;;;;;;;4.57;1.67;;;23.10;99.90;;;;;;5057511;28;20045;-87
2023/08/03 11:51:39;;;;;;;6.32;2.80;;;23.30;99.90;;;;;;5075299;28;20082;-84
2023/08/03 11:54:06;;;;;;;7.78;4.15;;;23.10;99.90;;;;;;5074314;28;20459;-86
2023/08/03 11:56:35;;;;;;;6.03;2.70;;;22.90;99.90;;;;;;5051902;28;20083;-86
2023/08/03 11:59:10;;;;;;;4.70;1.75;;;22.60;99.90;;;;;;5067783;28;20538;-85
2023/08/03 12:01:37;;;;;;;4.28;1.40;;;22.50;99.90;;;;;;5075121;28;20135;-85
2023/08/03 12:04:04;;;;;;;4.95;1.60;;;22.20;99.90;;;;;;5040930;28;20422;-85
2023/08/03 12:06:40;;;;;;;8.07;1.58;;;22.10;99.90;;;;;;5074359;28;20036;-83
2023/08/03 12:09:10;;;;;;;4.60;1.58;;;22.00;99.90;;;;;;5057662;28;20033;-84
2023/08/03 12:11:42;;;;;;;3.63;1.48;;;21.80;99.90;;;;;;5055921;28;20470;-84
2023/08/03 12:14:10;;;;;;;4.05;1.48;;;21.90;99.90;;;;;;5063577;28;20041;-83
2023/08/03 12:19:33;;;;;;;7.10;1.65;;;21.90;99.90;;;;;;5060645;28;20048;-83
2023/08/03 12:22:01;;;;;;;4.70;1.55;;;22.00;99.90;;;;;;5074595;28;20036;-84
2023/08/03 12:24:29;;;;;;;6.30;1.67;;;22.10;99.90;;;;;;5057404;28;20387;-83
2023/08/03 12:29:49;;;;;;;6.18;1.95;;;22.40;99.90;;;;;;5064464;28;20048;-85
2023/08/03 12:32:16;;;;;;;6.10;1.77;;;22.10;99.90;;;;;;5056340;28;20611;-84
2023/08/03 12:34:42;;;;;;;6.80;1.65;;;21.80;99.90;;;;;;5074379;28;20123;-86
2023/08/03 12:39:42;;;;;;;4.72;1.63;;;21.30;99.90;;;;;;5080955;28;20039;-82
2023/08/03 12:42:09;;;;;;;5.50;1.92;;;21.20;99.90;;;;;;5070779;28;20077;-85
2023/08/03 12:44:36;;;;;;;5.63;1.80;;;21.10;99.90;;;;;;5056996;28;20521;-85
2023/08/03 12:49:48;;;;;;;6.35;2.10;;;20.80;99.90;;;;;;5061033;28;20482;-85
2023/08/03 12:52:15;;;;;;;5.80;1.70;;;20.70;99.90;;;;;;5073417;28;20146;-84
2023/08/03 12:54:41;;;;;;;5.05;1.50;;;20.70;99.90;;;;;;5072785;28;20119;-83
2023/08/03 12:57:08;;;;;;;6.00;1.80;;;20.80;99.90;;;;;;5073973;28;20033;-84
2023/08/03 12:59:36;;;;;;;6.55;1.55;;;20.80;99.90;;;;;;5063462;28;20044;-83
2023/08/03 13:02:03;;;;;;;3.63;1.48;;;20.90;99.90;;;;;;5056642;28;20158;-84
2023/08/03 13:04:30;;;;;;;3.92;1.50;;;21.00;99.90;;;;;;5073714;28;20082;-84
2023/08/03 13:09:42;;;;;;;4.43;1.80;;;21.30;99.90;;;;;;5070796;28;20105;-84
2023/08/03 13:12:09;;;;;;;5.38;1.60;;;21.40;99.90;;;;;;5056595;28;20487;-85
2023/08/03 13:14:36;;;;;;;4.10;1.48;;;21.40;99.90;;;;;;5074207;28;20040;-85
2023/08/03 13:20:06;;;;;;;3.83;1.42;;;21.60;99.90;;;;;;5066196;28;20032;-85
2023/08/03 13:22:33;;;;;;;4.63;1.60;;;21.90;99.90;;;;;;5074218;28;20165;-85
2023/08/03 13:25:00;;;;;;;4.43;1.70;;;22.10;99.90;;;;;;5077689;28;20071;-85
2023/08/03 13:27:27;;;;;;;5.93;1.70;;;22.30;99.90;;;;;;5059713;28;20078;-84
2023/08/03 13:29:54;;;;;;;3.92;1.58;;;22.30;99.90;;;;;;5060909;28;20041;-84
2023/08/03 13:32:20;;;;;;;4.05;1.50;;;22.40;99.90;;;;;;5059734;28;20048;-85
2023/08/03 13:34:47;;;;;;;4.75;1.55;;;22.50;99.90;;;;;;5060763;28;20044;-86
2023/08/03 13:37:14;;;;;;;4.95;1.75;;;22.60;99.90;;;;;;5060984;28;20040;-86
2023/08/03 13:39:41;;;;;;;4.32;1.63;;;22.70;99.90;;;;;;5077333;28;20075;-84
2023/08/03 13:42:08;;;;;;;5.00;1.50;;;22.90;99.90;;;;;;5078161;28;20037;-87
2023/08/03 13:44:34;;;;;;;5.13;1.45;;;23.00;99.90;;;;;;5077859;28;20166;-87
2023/08/03 13:47:04;;;;;;;5.18;1.67;;;23.00;99.90;;;;;;5077971;28;20443;-83
2023/08/03 13:49:31;;;;;;;4.30;1.63;;;22.80;99.90;;;;;;5078099;28;20044;-85
2023/08/03 13:51:58;;;;;;;4.63;1.70;;;22.60;99.90;;;;;;5059734;28;20461;-85
2023/08/03 13:54:25;;;;;;;3.67;1.40;;;22.80;99.90;;;;;;5059961;28;20048;-85
2023/08/03 13:59:37;;;;;;;5.65;1.80;;;22.80;99.90;;;;;;5076711;28;20070;-85
2023/08/03 14:02:03;;;;;;;3.90;1.55;;;23.20;99.90;;;;;;5077382;28;20036;-84
2023/08/03 14:04:32;;;;;;;3.60;1.30;;;24.10;99.90;;;;;;5059878;28;20036;-85
2023/08/03 14:07:00;;;;;;;3.53;1.30;;;24.20;99.90;;;;;;5059326;28;20036;-85
2023/08/03 14:09:29;;;;;;;4.95;1.33;;;24.10;99.90;;;;;;5060143;28;20135;-84